New Century, Kansas
Current Conditions -  °F | °C
As of 9:53 PM on Saturday 25 Oct 2014 (Local Time) from KIXD Reporting Station
Clear Clear  
Wind Chill: 67°   Ceiling: Unl
Heat Index: 67°   Visibility: 10mi
Dew Point: 58°   Wind: 7mph
Humidity: 73%   Direction: 110°ESE
Pressure: 30"   Gusts: NA
Location:  38.81°N, 94.93°W
Report Text: KIXD 260253Z 11006KT 10SM CLR 19/14 A3000 RMK AO2 SLP153 T01940144 58005
Loading
Personal Weather Stations






























Interactive Weather Map New forecast layout! Learn more

10-Day Weather Forecast

Advertisements
Track Severe Weather on mobile